Time;durP1;ratioP1;P1;durP2;ratioP2;P2;SDS_P1;SDS_P2;PMS_P1;PMS_P2;Temp;Humidity;BMP_temperature;BMP_pressure;BME280_temperature;BME280_humidity;BME280_pressure;Samples;Min_cycle;Max_cycle;Signal;HPM_P1;HPM_P2
2023/05/11 08:34:56;;;;;;;;;7.00;4.00;;;;;20.82;44.67;101157.28;4996988;28;45934;-40
2023/05/11 08:37:22;;;;;;;;;4.25;4.25;;;;;20.83;44.37;101165.13;4997437;28;45353;-39
2023/05/11 08:39:47;;;;;;;;;6.50;3.50;;;;;20.84;44.90;101165.97;4997867;28;45455;-39
2023/05/11 08:42:15;;;;;;;;;6.00;5.00;;;;;20.84;44.67;101160.69;4996265;28;45222;-39
2023/05/11 08:44:42;;;;;;;;;5.00;5.00;;;;;20.85;44.85;101162.41;4997310;28;46680;-39
2023/05/11 08:47:08;;;;;;;;;6.00;5.00;;;;;20.84;44.70;101156.25;4997335;28;45404;-39
2023/05/11 08:49:34;;;;;;;;;6.25;6.25;;;;;20.84;44.66;101160.69;4997564;28;46014;-39
2023/05/11 08:52:03;;;;;;;;;5.00;5.00;;;;;20.87;44.67;101162.31;4997431;28;45456;-39
2023/05/11 08:54:29;;;;;;;;;5.75;4.00;;;;;20.88;44.45;101159.63;4997231;28;46423;-39
2023/05/11 08:56:55;;;;;;;;;6.00;5.00;;;;;20.87;44.88;101160.53;5002891;28;45368;-39
2023/05/11 08:59:24;;;;;;;;;5.75;5.00;;;;;20.88;44.60;101156.09;5005176;28;45289;-40
2023/05/11 09:01:51;;;;;;;;;4.00;4.00;;;;;20.88;44.84;101156.09;4998832;28;45309;-39
2023/05/11 09:04:18;;;;;;;;;6.25;6.00;;;;;20.91;44.82;101153.31;4997184;28;47030;-39
2023/05/11 09:06:44;;;;;;;;;5.00;5.00;;;;;20.91;45.12;101154.16;4996284;28;45238;-39
2023/05/11 09:09:09;;;;;;;;;4.50;4.50;;;;;20.91;45.06;101153.31;4997053;28;45436;-38
2023/05/11 09:11:35;;;;;;;;;5.00;5.00;;;;;20.92;44.59;101153.22;4997268;28;45674;-38
2023/05/11 09:14:00;;;;;;;;;7.25;5.50;;;;;20.92;44.27;101150.59;4997008;28;46518;-39
2023/05/11 09:16:26;;;;;;;;;5.50;5.50;;;;;20.92;44.74;101155.88;4996942;28;45330;-39
2023/05/11 09:18:52;;;;;;;;;7.25;5.50;;;;;20.93;44.75;101149.66;5003621;28;45254;-39
2023/05/11 09:21:18;;;;;;;;;6.00;6.00;;;;;20.94;44.63;101156.66;5020254;28;45601;-39
2023/05/11 09:23:44;;;;;;;;;4.75;4.50;;;;;20.94;44.97;101161.09;5016782;28;45414;-42
2023/05/11 09:26:18;;;;;;;;;5.00;5.00;;;;;20.94;44.62;101155.81;5005335;28;45308;-38
2023/05/11 09:28:53;;;;;;;;;7.00;5.00;;;;;20.94;44.55;101158.44;4999054;28;45256;-40
2023/05/11 09:31:33;;;;;;;;;6.00;5.00;;;;;20.94;44.58;101154.00;4999308;28;45482;-38
2023/05/11 09:34:15;;;;;;;;;4.50;3.25;;;;;20.93;44.81;101157.56;5001267;28;46204;-39
2023/05/11 09:36:47;;;;;;;;;5.25;5.25;;;;;20.93;44.52;101149.66;5003751;28;45837;-39
2023/05/11 09:39:14;;;;;;;;;4.75;4.00;;;;;20.93;44.61;101154.94;4996445;28;45489;-39
2023/05/11 09:41:39;;;;;;;;;6.00;6.00;;;;;20.94;44.41;101154.00;4998171;28;45328;-39
2023/05/11 09:44:10;;;;;;;;;6.25;5.00;;;;;20.96;44.82;101154.78;4996121;28;48049;-39
2023/05/11 09:46:37;;;;;;;;;5.25;5.25;;;;;20.95;44.84;101161.00;5020252;28;45146;-39
2023/05/11 09:49:03;;;;;;;;;5.25;4.50;;;;;20.96;44.43;101149.53;5006813;28;45716;-39
2023/05/11 09:51:31;;;;;;;;;8.00;6.00;;;;;20.96;44.80;101152.16;4997004;28;45596;-38
2023/05/11 09:53:57;;;;;;;;;5.00;5.00;;;;;20.97;44.55;101148.59;4996412;28;46419;-38
2023/05/11 09:56:23;;;;;;;;;4.00;4.00;;;;;20.98;44.71;101146.78;4996950;28;45693;-40
2023/05/11 09:58:51;;;;;;;;;5.25;5.00;;;;;20.98;44.41;101145.03;4996793;28;45305;-39
2023/05/11 10:01:27;;;;;;;;;5.50;5.25;;;;;20.96;44.42;101138.09;4997000;28;45336;-39
2023/05/11 10:03:53;;;;;;;;;5.50;5.50;;;;;20.97;44.69;101134.53;5000632;28;45346;-39
2023/05/11 10:06:19;;;;;;;;;7.25;6.00;;;;;20.97;44.71;101143.31;5002060;28;45283;-43
2023/05/11 10:08:44;;;;;;;;;5.00;5.00;;;;;20.97;44.38;101135.41;5007517;28;49572;-39
2023/05/11 10:11:10;;;;;;;;;6.00;5.00;;;;;20.97;44.42;101130.16;5012464;28;45284;-39
2023/05/11 10:13:36;;;;;;;;;6.00;4.25;;;;;20.97;44.52;101130.16;5002741;28;46618;-39
2023/05/11 10:16:05;;;;;;;;;5.00;5.00;;;;;20.98;44.67;101129.22;4999193;28;45840;-39
2023/05/11 10:18:32;;;;;;;;;4.00;4.00;;;;;20.98;44.79;101126.59;5016139;28;45347;-39
2023/05/11 10:20:58;;;;;;;;;6.50;4.00;;;;;20.98;44.58;101129.22;5000701;28;45655;-39
2023/05/11 10:23:25;;;;;;;;;6.00;6.00;;;;;20.98;44.61;101131.84;5009317;28;45356;-40
2023/05/11 10:25:53;;;;;;;;;5.00;4.00;;;;;20.99;44.51;101133.56;5001634;28;45326;-40
2023/05/11 10:28:20;;;;;;;;;3.75;3.50;;;;;20.98;44.88;101126.59;5000018;28;45323;-42
2023/05/11 10:30:46;;;;;;;;;5.25;5.25;;;;;20.99;44.74;101128.28;5000002;28;45650;-42
2023/05/11 10:33:12;;;;;;;;;5.00;5.00;;;;;20.99;44.90;101130.91;4999839;28;46764;-41
2023/05/11 10:35:38;;;;;;;;;7.75;6.00;;;;;20.99;44.37;101125.66;4999828;28;45876;-41
2023/05/11 10:38:05;;;;;;;;;6.00;4.00;;;;;20.99;44.85;101127.41;4999901;28;45437;-41
2023/05/11 10:40:37;;;;;;;;;5.00;5.00;;;;;21.00;44.61;101129.13;5000009;28;45379;-39
2023/05/11 10:43:14;;;;;;;;;5.75;5.00;;;;;20.98;44.58;101129.22;4999383;28;45692;-40
2023/05/11 10:45:51;;;;;;;;;6.00;5.50;;;;;20.98;44.53;101126.59;5001028;28;53724;-39
2023/05/11 10:48:39;;;;;;;;;6.75;4.50;;;;;20.98;44.84;101123.94;5007549;28;45359;-39
2023/05/11 10:51:13;;;;;;;;;5.25;5.25;;;;;20.99;44.41;101123.03;5002382;28;45397;-39
2023/05/11 10:54:15;;;;;;;;;6.75;5.50;;;;;20.98;44.79;101126.59;4999309;28;47557;-40
2023/05/11 10:56:59;;;;;;;;;5.75;5.75;;;;;20.98;44.42;101121.31;4999451;28;45423;-39
2023/05/11 10:59:45;;;;;;;;;6.50;6.50;;;;;20.98;44.62;101126.59;4999577;28;45463;-39
2023/05/11 11:02:11;;;;;;;;;5.50;5.50;;;;;20.98;44.40;101118.69;4999276;28;45449;-40
2023/05/11 11:04:48;;;;;;;;;5.25;5.25;;;;;20.94;44.46;101114.50;4999127;28;46393;-43
2023/05/11 11:07:17;;;;;;;;;7.50;7.00;;;;;20.95;44.39;101121.47;5005226;28;45727;-39
2023/05/11 11:09:48;;;;;;;;;7.00;6.75;;;;;20.97;44.59;101124.88;5005025;28;45219;-39
2023/05/11 11:12:13;;;;;;;;;7.00;6.00;;;;;20.96;44.49;101114.41;5005741;28;45623;-39
2023/05/11 11:14:57;;;;;;;;;8.00;6.50;;;;;20.96;44.39;101117.91;5004853;28;46574;-39
2023/05/11 11:17:30;;;;;;;;;9.00;7.00;;;;;20.95;44.60;101113.56;5005398;28;45262;-39
2023/05/11 11:20:03;;;;;;;;;6.75;5.00;;;;;20.95;44.73;101115.31;5005702;28;45277;-38
2023/05/11 11:22:34;;;;;;;;;6.25;5.75;;;;;20.95;44.53;101116.19;5010725;28;45392;-38
2023/05/11 11:25:04;;;;;;;;;7.50;6.75;;;;;20.94;44.36;101109.22;5013929;28;46628;-38
2023/05/11 11:27:38;;;;;;;;;10.75;7.00;;;;;20.94;44.38;101109.22;5008758;28;45739;-39
2023/05/11 11:30:17;;;;;;;;;8.75;5.25;;;;;20.93;44.75;101104.88;5004563;28;45361;-39
2023/05/11 11:32:43;;;;;;;;;7.00;6.00;;;;;20.94;44.58;101109.22;5004098;28;45485;-39
2023/05/11 11:35:40;;;;;;;;;7.50;5.75;;;;;20.94;44.35;101109.22;5004325;28;46332;-39
2023/05/11 11:38:10;;;;;;;;;6.75;6.00;;;;;20.92;44.69;101111.06;5001926;28;45743;-39
2023/05/11 11:40:37;;;;;;;;;6.00;6.00;;;;;20.93;44.58;101101.41;5017391;28;45404;-38
2023/05/11 11:43:23;;;;;;;;;6.00;6.00;;;;;20.92;44.46;101105.81;5005136;28;45443;-39
2023/05/11 11:45:59;;;;;;;;;5.75;5.75;;;;;20.92;44.56;101099.69;5005421;28;46941;-39
2023/05/11 11:48:36;;;;;;;;;6.00;6.00;;;;;20.90;44.72;101099.75;5002912;28;45384;-39
2023/05/11 11:51:07;;;;;;;;;7.25;5.00;;;;;20.89;44.76;101103.31;5006927;28;45363;-39
2023/05/11 11:53:36;;;;;;;;;6.75;6.00;;;;;20.91;44.56;101105.91;5022772;28;44912;-39
2023/05/11 11:56:06;;;;;;;;;7.50;6.00;;;;;20.91;44.64;101105.91;5003622;28;46473;-40
2023/05/11 11:58:40;;;;;;;;;7.25;5.75;;;;;20.91;44.56;101103.25;5002022;28;45479;-43
2023/05/11 12:01:27;;;;;;;;;5.50;5.00;;;;;20.90;44.44;101102.41;5003784;28;45482;-46
2023/05/11 12:04:25;;;;;;;;;6.00;6.00;;;;;20.88;44.54;101099.03;5000373;28;45408;-41
2023/05/11 12:06:56;;;;;;;;;7.25;6.75;;;;;20.89;44.66;101097.22;4993183;28;45597;-40
2023/05/11 12:09:22;;;;;;;;;5.25;4.00;;;;;20.89;44.39;101100.69;5004501;28;45788;-40
2023/05/11 12:11:48;;;;;;;;;5.25;5.25;;;;;20.88;44.46;101099.03;5003079;28;45489;-40
2023/05/11 12:14:14;;;;;;;;;5.00;4.25;;;;;20.89;44.51;101099.84;5001545;28;45519;-39
2023/05/11 12:16:39;;;;;;;;;5.75;5.75;;;;;20.87;44.64;101099.94;5003089;28;45458;-41
2023/05/11 12:19:05;;;;;;;;;7.50;6.00;;;;;20.88;44.59;101104.28;5001377;28;45225;-41
2023/05/11 12:21:31;;;;;;;;;5.00;3.50;;;;;20.88;44.28;101099.03;5000809;28;45344;-41
2023/05/11 12:23:59;;;;;;;;;6.25;6.25;;;;;20.88;44.59;101101.66;5002471;28;45344;-39
2023/05/11 12:26:26;;;;;;;;;6.75;5.50;;;;;20.86;44.35;101098.25;4999962;28;46672;-41
2023/05/11 12:29:06;;;;;;;;;8.00;6.00;;;;;20.88;44.41;101106.06;4999547;28;45320;-40
2023/05/11 12:31:49;;;;;;;;;7.50;5.25;;;;;20.87;44.63;101099.94;4998478;28;45293;-41
2023/05/11 12:34:21;;;;;;;;;3.00;2.00;;;;;20.87;44.53;101092.03;4998144;28;45254;-41
2023/05/11 12:36:48;;;;;;;;;5.50;4.75;;;;;20.88;44.14;101098.16;4997833;28;46357;-41
2023/05/11 12:39:19;;;;;;;;;7.75;5.75;;;;;20.87;44.31;101094.69;5003484;28;45331;-39
2023/05/11 12:41:47;;;;;;;;;5.25;4.75;;;;;20.88;44.42;101095.50;5007191;28;45332;-41
2023/05/11 12:44:14;;;;;;;;;4.75;4.75;;;;;20.87;44.66;101094.69;5009630;28;45400;-42
2023/05/11 12:46:40;;;;;;;;;4.50;4.00;;;;;20.89;44.39;101095.44;5000394;28;47630;-44
2023/05/11 12:49:05;;;;;;;;;4.00;3.00;;;;;20.90;44.40;101091.84;4997642;28;45430;-41
2023/05/11 12:51:58;;;;;;;;;7.75;5.00;;;;;20.89;44.44;101095.44;4998098;28;45294;-40
2023/05/11 12:54:37;;;;;;;;;7.50;5.50;;;;;20.91;44.27;101092.72;4997484;28;45617;-41
2023/05/11 12:57:05;;;;;;;;;5.00;5.00;;;;;20.89;44.54;101095.44;5012621;28;48121;-40
2023/05/11 12:59:32;;;;;;;;;6.00;4.75;;;;;20.89;44.54;101090.16;4997830;28;45391;-41
2023/05/11 13:02:08;;;;;;;;;7.25;4.00;;;;;20.91;44.63;101092.72;4997822;28;45463;-41
2023/05/11 13:04:34;;;;;;;;;4.75;4.75;;;;;20.90;44.09;101097.13;4997674;28;45501;-41
2023/05/11 13:06:59;;;;;;;;;4.75;4.75;;;;;20.91;44.51;101098.84;4997554;28;46508;-42
2023/05/11 13:09:26;;;;;;;;;4.75;4.75;;;;;20.91;44.38;101088.28;4996929;28;45206;-44
2023/05/11 13:12:10;;;;;;;;;4.75;4.00;;;;;20.92;44.17;101083.91;4997410;28;45417;-41
2023/05/11 13:14:35;;;;;;;;;5.75;5.75;;;;;20.91;44.48;101083.03;4999737;28;45519;-39
2023/05/11 13:17:01;;;;;;;;;4.00;4.00;;;;;20.91;44.19;101090.94;5005603;28;46739;-40
2023/05/11 13:19:28;;;;;;;;;4.00;4.00;;;;;20.93;44.20;101085.59;5001957;28;45337;-42
2023/05/11 13:21:54;;;;;;;;;5.00;4.00;;;;;20.93;44.31;101085.59;4997252;28;45475;-42
2023/05/11 13:24:20;;;;;;;;;4.50;4.50;;;;;20.92;44.26;101083.91;4997195;28;45408;-42
2023/05/11 13:26:46;;;;;;;;;5.75;4.50;;;;;20.92;44.17;101087.38;4996781;28;46396;-41
2023/05/11 13:29:11;;;;;;;;;4.00;4.00;;;;;20.92;44.11;101074.19;4996303;28;54162;-40
2023/05/11 13:31:48;;;;;;;;;5.00;4.25;;;;;20.93;43.91;101069.78;4996146;28;59773;-40
2023/05/11 13:34:14;;;;;;;;;4.50;4.00;;;;;20.93;44.22;101075.91;4997280;28;45324;-39
2023/05/11 13:36:39;;;;;;;;;3.50;3.50;;;;;20.94;44.42;101068.84;4996580;28;46043;-41
2023/05/11 13:39:05;;;;;;;;;4.75;4.50;;;;;20.93;44.20;101068.00;4996560;28;57898;-41
2023/05/11 13:41:31;;;;;;;;;3.25;3.25;;;;;20.94;44.34;101061.78;4996810;28;45251;-40
2023/05/11 13:43:56;;;;;;;;;9.00;5.50;;;;;20.94;44.00;101064.44;4997667;28;46203;-41
2023/05/11 13:46:21;;;;;;;;;3.50;3.50;;;;;20.94;44.08;101067.06;4996445;28;46154;-41
2023/05/11 13:48:47;;;;;;;;;4.50;4.25;;;;;20.93;43.97;101065.34;4997166;28;45460;-39
2023/05/11 13:51:12;;;;;;;;;3.00;3.00;;;;;20.94;43.99;101056.53;5000842;28;45328;-39
2023/05/11 13:53:38;;;;;;;;;4.00;4.00;;;;;20.95;44.17;101054.72;5002494;28;45393;-41
2023/05/11 13:56:03;;;;;;;;;6.00;4.00;;;;;20.94;43.94;101067.06;5002973;28;67983;-39
2023/05/11 13:58:28;;;;;;;;;6.25;5.25;;;;;20.93;44.04;101057.44;5013579;28;45370;-42
2023/05/11 14:00:54;;;;;;;;;7.50;4.00;;;;;20.94;44.20;101056.53;5014651;28;49664;-42
2023/05/11 14:03:20;;;;;;;;;3.25;3.25;;;;;20.94;44.16;101055.69;4997950;28;45407;-43
2023/05/11 14:05:49;;;;;;;;;4.50;3.00;;;;;20.95;44.00;101058.22;4997895;28;47237;-41
2023/05/11 14:08:14;;;;;;;;;6.00;5.00;;;;;20.95;44.27;101050.31;4999013;28;45385;-41
2023/05/11 14:10:40;;;;;;;;;4.50;4.50;;;;;20.96;44.03;101040.63;5003934;28;45314;-40
2023/05/11 14:13:06;;;;;;;;;4.00;1.25;;;;;20.96;43.99;101046.75;5001568;28;45225;-41
2023/05/11 14:15:32;;;;;;;;;3.75;3.75;;;;;20.96;44.19;101040.63;4996250;28;46114;-41
2023/05/11 14:17:57;;;;;;;;;5.50;4.00;;;;;20.96;43.97;101045.88;4996436;28;45784;-41
2023/05/11 14:20:22;;;;;;;;;4.00;3.00;;;;;20.95;43.90;101039.78;4996211;28;53038;-41
2023/05/11 14:22:48;;;;;;;;;3.25;3.25;;;;;20.96;44.03;101045.88;4996518;28;45503;-41
2023/05/11 14:25:13;;;;;;;;;4.50;3.00;;;;;20.96;44.00;101044.13;4996279;28;45476;-41
2023/05/11 14:27:39;;;;;;;;;5.00;4.00;;;;;20.95;43.96;101039.78;4996669;28;45421;-42
2023/05/11 14:30:05;;;;;;;;;3.25;3.25;;;;;20.97;44.19;101034.41;5013029;28;45323;-41
2023/05/11 14:32:31;;;;;;;;;5.75;4.00;;;;;20.94;43.85;101037.25;5002126;28;45360;-41
2023/05/11 14:34:56;;;;;;;;;3.25;3.25;;;;;20.96;44.27;101033.59;5001733;28;45421;-41
2023/05/11 14:37:21;;;;;;;;;3.50;3.25;;;;;20.95;44.49;101025.75;4997223;28;45349;-42
2023/05/11 14:39:47;;;;;;;;;3.50;3.50;;;;;20.95;44.15;101036.28;5001457;28;50837;-43
2023/05/11 14:42:12;;;;;;;;;4.00;3.00;;;;;20.95;43.89;101031.00;5005957;28;45392;-41
2023/05/11 14:44:38;;;;;;;;;4.25;3.00;;;;;20.95;44.06;101042.41;5008331;28;45392;-42
2023/05/11 14:47:04;;;;;;;;;3.00;3.00;;;;;20.94;43.93;101038.06;5010001;28;46072;-42
2023/05/11 14:49:29;;;;;;;;;3.75;3.75;;;;;20.94;43.70;101031.97;5009145;28;45222;-41
2023/05/11 14:51:56;;;;;;;;;4.00;4.00;;;;;20.91;43.95;101032.97;5008492;28;61497;-41
2023/05/11 14:54:21;;;;;;;;;3.75;3.00;;;;;20.93;44.09;101027.63;5010675;28;45308;-44
2023/05/11 14:56:52;;;;;;;;;4.50;3.00;;;;;20.94;43.68;101038.06;5010484;28;45359;-41
2023/05/11 14:59:18;;;;;;;;;3.25;3.00;;;;;20.93;43.87;101032.91;5009364;28;44820;-41
2023/05/11 15:01:43;;;;;;;;;3.25;3.25;;;;;20.92;43.97;101029.41;5008146;28;45449;-40
2023/05/11 15:04:08;;;;;;;;;4.00;3.00;;;;;20.92;44.07;101026.75;5000839;28;46448;-46
2023/05/11 15:06:34;;;;;;;;;3.00;3.00;;;;;20.93;44.03;101030.28;5004228;28;45348;-46
2023/05/11 15:08:59;;;;;;;;;4.00;3.00;;;;;20.93;43.94;101033.75;5002409;28;45646;-42
2023/05/11 15:11:25;;;;;;;;;5.00;3.25;;;;;20.92;43.78;101026.75;5006444;28;45614;-41
2023/05/11 15:13:50;;;;;;;;;7.00;3.00;;;;;20.93;44.01;101028.47;5015355;28;46249;-41
2023/05/11 15:16:15;;;;;;;;;4.00;4.00;;;;;20.94;44.04;101029.34;5005862;28;49598;-42
2023/05/11 15:18:40;;;;;;;;;3.75;2.50;;;;;20.93;44.01;101025.84;4999716;28;45310;-47
2023/05/11 15:21:06;;;;;;;;;3.00;2.00;;;;;20.93;43.79;101028.47;4999123;28;45603;-39
2023/05/11 15:23:31;;;;;;;;;3.50;3.50;;;;;20.93;43.75;101023.19;4998439;28;45418;-40
2023/05/11 15:25:57;;;;;;;;;5.00;4.00;;;;;20.94;43.97;101030.19;4997834;28;61924;-39
2023/05/11 15:28:23;;;;;;;;;3.00;3.00;;;;;20.94;43.74;101027.53;4998908;28;45301;-39
2023/05/11 15:30:48;;;;;;;;;4.00;3.00;;;;;20.93;43.97;101023.19;4999052;28;45567;-40
2023/05/11 15:33:15;;;;;;;;;3.00;3.00;;;;;20.93;43.74;101025.84;4997784;28;67543;-39
2023/05/11 15:35:40;;;;;;;;;3.00;3.00;;;;;20.93;43.72;101023.19;4998822;28;45398;-39
2023/05/11 15:38:05;;;;;;;;;2.00;2.00;;;;;20.94;43.75;101022.28;4998280;28;53838;-40
2023/05/11 15:40:31;;;;;;;;;3.00;3.00;;;;;20.93;43.69;101023.19;4998713;28;45322;-39
2023/05/11 15:42:56;;;;;;;;;2.50;2.50;;;;;20.94;43.89;101017.00;4998515;28;46016;-40
2023/05/11 15:45:22;;;;;;;;;5.00;2.00;;;;;20.93;44.04;101017.09;4998643;28;45319;-39
2023/05/11 15:47:47;;;;;;;;;3.00;3.00;;;;;20.94;43.81;101024.91;4999094;28;45459;-41
2023/05/11 15:50:13;;;;;;;;;4.00;3.75;;;;;20.92;43.87;101021.50;5002438;28;46784;-40
2023/05/11 15:52:41;;;;;;;;;2.75;2.75;;;;;20.94;44.02;101021.44;5002559;28;47050;-40
2023/05/11 15:55:07;;;;;;;;;3.25;3.25;;;;;20.93;44.00;101019.72;4999370;28;45801;-39
2023/05/11 15:57:34;;;;;;;;;2.50;2.00;;;;;20.93;43.68;101023.19;4998539;28;45309;-39
2023/05/11 16:00:00;;;;;;;;;3.25;3.25;;;;;20.92;43.94;101015.38;4998747;28;45498;-40
2023/05/11 16:02:25;;;;;;;;;5.00;4.00;;;;;20.92;43.90;101028.56;4998953;28;46042;-39
2023/05/11 16:04:50;;;;;;;;;2.00;2.00;;;;;20.91;43.78;101019.78;5018182;28;45262;-39
2023/05/11 16:07:16;;;;;;;;;4.33;4.00;;;;;20.93;43.78;101022.38;5005683;28;57570;-39
2023/05/11 16:09:41;;;;;;;;;4.00;3.00;;;;;20.92;43.97;101018.03;4998709;28;45434;-40
2023/05/11 16:12:07;;;;;;;;;2.25;2.00;;;;;20.92;44.12;101025.94;4997844;28;45505;-40
2023/05/11 16:14:32;;;;;;;;;3.25;3.25;;;;;20.89;43.87;101011.13;4997651;28;45287;-39
2023/05/11 16:16:57;;;;;;;;;2.00;2.00;;;;;20.90;43.79;101012.81;4997009;28;45298;-40
2023/05/11 16:19:23;;;;;;;;;3.25;3.00;;;;;20.90;43.53;101015.44;4998249;28;45527;-41
2023/05/11 16:21:48;;;;;;;;;3.00;3.00;;;;;20.91;43.51;101014.53;4997654;28;45499;-39
2023/05/11 16:24:13;;;;;;;;;3.50;2.00;;;;;20.91;43.92;101014.53;4998861;28;45159;-41
2023/05/11 16:26:39;;;;;;;;;3.00;3.00;;;;;20.90;44.16;101007.56;5001018;28;45187;-39
2023/05/11 16:29:06;;;;;;;;;2.50;2.50;;;;;20.92;44.12;101015.38;5002657;28;45642;-39
2023/05/11 16:31:32;;;;;;;;;2.00;2.00;;;;;20.91;43.93;101014.53;5000758;28;54078;-40
2023/05/11 16:33:57;;;;;;;;;3.50;2.00;;;;;20.89;44.20;101016.38;4998229;28;45485;-39
2023/05/11 16:36:23;;;;;;;;;2.25;2.25;;;;;20.90;44.05;101018.09;4998082;28;45281;-41
2023/05/11 16:38:48;;;;;;;;;3.75;3.75;;;;;20.89;43.99;101015.53;4997840;28;45622;-40
2023/05/11 16:41:13;;;;;;;;;2.75;2.50;;;;;20.89;44.20;101011.13;4997700;28;46475;-40
2023/05/11 16:43:40;;;;;;;;;3.00;3.00;;;;;20.89;43.84;101011.13;4997487;28;45451;-39
2023/05/11 16:46:07;;;;;;;;;5.00;3.50;;;;;20.90;43.76;101015.44;4997485;28;45440;-38
2023/05/11 16:48:32;;;;;;;;;2.00;2.00;;;;;20.89;44.07;101016.38;4997660;28;45352;-39
2023/05/11 16:50:58;;;;;;;;;1.75;1.75;;;;;20.88;43.86;101014.72;4997174;28;47704;-39
2023/05/11 16:53:26;;;;;;;;;2.00;2.00;;;;;20.89;44.06;101010.28;4997242;28;45353;-40
2023/05/11 16:55:55;;;;;;;;;4.00;3.00;;;;;20.90;43.96;101015.44;5004790;28;45583;-40
2023/05/11 16:58:22;;;;;;;;;1.00;1.00;;;;;20.90;43.80;101020.72;5011213;28;45515;-39
2023/05/11 17:00:47;;;;;;;;;3.50;2.50;;;;;20.89;43.97;101019.03;4999826;28;47450;-39
2023/05/11 17:03:13;;;;;;;;;3.50;3.25;;;;;20.89;44.04;101011.13;5001209;28;45272;-39
2023/05/11 17:05:38;;;;;;;;;3.00;3.00;;;;;20.90;43.70;101015.44;5000286;28;54274;-39
2023/05/11 17:08:03;;;;;;;;;3.00;3.00;;;;;20.88;43.73;101013.84;5005216;28;45285;-40
2023/05/11 17:10:29;;;;;;;;;3.50;2.00;;;;;20.89;43.85;101013.75;5001068;28;45322;-39
2023/05/11 17:12:54;;;;;;;;;4.50;3.00;;;;;20.89;43.65;101021.66;4997213;28;45179;-39
2023/05/11 17:15:19;;;;;;;;;3.00;2.00;;;;;20.88;44.07;101019.97;4997165;28;45459;-40
2023/05/11 17:17:45;;;;;;;;;4.00;3.00;;;;;20.88;43.57;101019.97;4996315;28;45309;-40
2023/05/11 17:20:10;;;;;;;;;1.75;1.75;;;;;20.87;44.04;101013.00;4995804;28;45444;-39
2023/05/11 17:22:37;;;;;;;;;3.00;3.00;;;;;20.87;44.08;101020.91;4996867;28;45278;-40
2023/05/11 17:25:03;;;;;;;;;2.00;2.00;;;;;20.87;43.80;101018.28;4996848;28;45246;-41
2023/05/11 17:27:29;;;;;;;;;2.00;2.00;;;;;20.87;44.17;101013.00;4996155;28;45586;-40
2023/05/11 17:29:55;;;;;;;;;3.00;3.00;;;;;20.88;44.12;101019.13;4996610;28;45478;-39
2023/05/11 17:32:21;;;;;;;;;2.75;2.00;;;;;20.87;43.84;101018.28;4996821;28;45331;-41
2023/05/11 17:34:46;;;;;;;;;3.75;2.00;;;;;20.86;43.76;101013.94;4997281;28;45479;-41
2023/05/11 17:37:12;;;;;;;;;2.00;2.00;;;;;20.82;43.98;101004.50;4997176;28;45299;-40
2023/05/11 17:39:38;;;;;;;;;2.75;2.75;;;;;20.86;44.07;101016.56;4996819;28;46211;-40
2023/05/11 17:42:03;;;;;;;;;3.00;3.00;;;;;20.86;43.91;101024.47;4997243;28;69946;-40
2023/05/11 17:44:28;;;;;;;;;3.25;1.50;;;;;20.86;43.80;101027.09;5009427;28;45323;-39
2023/05/11 17:46:54;;;;;;;;;4.00;2.00;;;;;20.86;43.92;101019.22;5009913;28;49242;-40
2023/05/11 17:49:19;;;;;;;;;2.00;2.00;;;;;20.86;43.82;101027.09;5005887;28;50821;-40
2023/05/11 17:51:46;;;;;;;;;2.00;2.00;;;;;20.86;43.94;101021.84;4996795;28;67883;-39
2023/05/11 17:54:11;;;;;;;;;2.00;1.00;;;;;20.83;44.02;101022.00;4997889;28;45283;-38
2023/05/11 17:56:36;;;;;;;;;2.00;2.00;;;;;20.85;43.74;101030.69;5018705;28;44910;-41
2023/05/11 17:59:02;;;;;;;;;1.00;1.00;;;;;20.85;43.91;101030.69;5016796;28;55519;-42
2023/05/11 18:01:28;;;;;;;;;4.00;2.00;;;;;20.84;43.86;101024.53;5015373;28;44687;-39
2023/05/11 18:03:53;;;;;;;;;3.00;3.00;;;;;20.84;43.83;101024.53;5002364;28;45410;-40
2023/05/11 18:06:18;;;;;;;;;2.00;1.00;;;;;20.82;43.83;101025.56;5005598;28;45531;-39
2023/05/11 18:08:44;;;;;;;;;1.25;1.25;;;;;20.84;44.08;101024.53;5011755;28;47247;-39
2023/05/11 18:11:11;;;;;;;;;2.00;2.00;;;;;20.84;43.74;101034.25;5014801;28;44666;-39
2023/05/11 18:13:36;;;;;;;;;1.00;1.00;;;;;20.83;43.93;101037.81;5007465;28;45421;-40
2023/05/11 18:16:02;;;;;;;;;2.00;2.00;;;;;20.83;43.83;101030.78;4996887;28;45510;-40
2023/05/11 18:18:27;;;;;;;;;4.00;2.00;;;;;20.84;43.81;101034.25;4998367;28;45965;-39
2023/05/11 18:20:53;;;;;;;;;2.00;1.50;;;;;20.84;43.59;101034.25;5004107;28;45361;-39
2023/05/11 18:23:19;;;;;;;;;3.50;1.25;;;;;20.82;44.03;101036.09;5001946;28;45392;-39
2023/05/11 18:25:44;;;;;;;;;3.00;2.00;;;;;20.82;43.66;101039.59;4996568;28;45234;-39
2023/05/11 18:28:09;;;;;;;;;2.00;2.00;;;;;20.82;43.73;101041.38;4996153;28;45602;-39
2023/05/11 18:30:35;;;;;;;;;2.25;2.00;;;;;20.82;43.97;101051.91;4996007;28;45228;-40
2023/05/11 18:33:00;;;;;;;;;2.75;2.00;;;;;20.82;44.08;101047.50;4996269;28;45347;-40
2023/05/11 18:35:26;;;;;;;;;0.75;0.75;;;;;20.82;43.98;101055.41;4995159;28;45623;-38
2023/05/11 18:37:51;;;;;;;;;3.25;2.00;;;;;20.82;43.53;101049.28;4997567;28;46184;-40
2023/05/11 18:40:20;;;;;;;;;4.00;2.33;;;;;20.81;43.70;101053.69;4998729;28;62230;-38
2023/05/11 18:42:48;;;;;;;;;2.00;2.00;;;;;20.81;43.94;101055.47;4999577;28;45356;-39
2023/05/11 18:45:13;;;;;;;;;3.75;3.00;;;;;20.81;43.78;101051.06;4999749;28;45353;-40
2023/05/11 18:47:43;;;;;;;;;3.00;2.00;;;;;20.81;43.82;101058.09;5001284;28;46969;-39
2023/05/11 18:50:08;;;;;;;;;3.50;2.25;;;;;20.82;43.76;101062.44;5004687;28;46123;-46
2023/05/11 18:52:34;;;;;;;;;2.50;1.50;;;;;20.81;43.68;101066.00;4999729;28;45345;-39
2023/05/11 18:54:59;;;;;;;;;6.00;3.00;;;;;20.81;44.03;101066.88;5002230;28;45335;-38
2023/05/11 18:57:25;;;;;;;;;2.00;1.75;;;;;20.81;43.57;101071.28;5006709;28;45403;-39
2023/05/11 18:59:51;;;;;;;;;1.00;1.00;;;;;20.80;43.63;101069.56;5004893;28;45309;-39
2023/05/11 19:02:16;;;;;;;;;1.25;1.25;;;;;20.80;43.82;101072.19;5004525;28;45345;-39
2023/05/11 19:04:42;;;;;;;;;2.00;2.00;;;;;20.80;43.81;101074.84;5004024;28;45297;-40
2023/05/11 19:07:09;;;;;;;;;1.75;1.75;;;;;20.79;43.58;101075.75;5002449;28;46980;-40
2023/05/11 19:09:35;;;;;;;;;2.00;2.00;;;;;20.79;43.95;101078.41;5003534;28;45244;-40
2023/05/11 19:12:00;;;;;;;;;2.50;2.50;;;;;20.79;43.74;101078.41;5005278;28;45206;-39
2023/05/11 19:14:26;;;;;;;;;2.50;1.50;;;;;20.78;44.00;101074.09;5004188;28;45526;-39
2023/05/11 19:16:51;;;;;;;;;1.00;1.00;;;;;20.79;43.91;101083.66;5003061;28;70701;-39
2023/05/11 19:19:17;;;;;;;;;2.00;2.00;;;;;20.79;43.78;101083.66;5002110;28;45470;-40
2023/05/11 19:21:44;;;;;;;;;2.25;1.25;;;;;20.79;43.54;101089.81;5016560;28;45372;-40
2023/05/11 19:24:09;;;;;;;;;2.00;2.00;;;;;20.78;43.69;101088.09;5001535;28;45347;-44
2023/05/11 19:26:37;;;;;;;;;2.50;2.50;;;;;20.76;43.51;101087.31;5000393;28;47792;-40
2023/05/11 19:29:03;;;;;;;;;1.75;1.75;;;;;20.79;43.56;101091.56;5000833;28;45763;-39
2023/05/11 19:31:30;;;;;;;;;2.50;2.50;;;;;20.79;43.71;101088.94;5002862;28;45251;-40
2023/05/11 19:33:57;;;;;;;;;1.00;1.00;;;;;20.78;43.84;101098.63;5009106;28;45571;-40
2023/05/11 19:36:22;;;;;;;;;3.00;2.00;;;;;20.78;43.71;101097.81;5012164;28;46115;-40
2023/05/11 19:38:47;;;;;;;;;1.25;1.25;;;;;20.78;43.46;101103.91;5004295;28;45398;-41
2023/05/11 19:41:13;;;;;;;;;3.00;2.00;;;;;20.77;43.34;101107.47;5003360;28;46119;-40
2023/05/11 19:43:38;;;;;;;;;1.00;1.00;;;;;20.78;43.70;101105.69;5000899;28;45638;-39
2023/05/11 19:46:03;;;;;;;;;4.00;2.00;;;;;20.75;43.58;101096.16;5013820;28;59004;-40
2023/05/11 19:48:29;;;;;;;;;1.00;1.00;;;;;20.78;43.67;101108.34;4999577;28;45391;-40
2023/05/11 19:50:55;;;;;;;;;2.00;1.25;;;;;20.75;43.45;101097.94;5000942;28;45463;-42
2023/05/11 19:53:20;;;;;;;;;2.00;2.00;;;;;20.78;43.52;101116.25;5005067;28;45305;-41
2023/05/11 19:55:46;;;;;;;;;3.00;1.75;;;;;20.77;43.94;101117.16;5000701;28;45428;-40
2023/05/11 19:58:11;;;;;;;;;2.25;2.25;;;;;20.76;43.70;101116.31;4998373;28;45390;-42
2023/05/11 20:00:39;;;;;;;;;2.25;1.50;;;;;20.76;43.60;101118.94;4998749;28;45362;-42